Time;durP1;ratioP1;P1;durP2;ratioP2;P2;SDS_P1;SDS_P2;PMS_P1;PMS_P2;Temp;Humidity;BMP_temperature;BMP_pressure;BME280_temperature;BME280_humidity;BME280_pressure;Samples;Min_cycle;Max_cycle;Signal;HPM_P1;HPM_P2
2024/03/19 00:00:11;;;;;;;5.30;3.70;;;23.30;65.10;;;;;;5136766;27;20444;-88
2024/03/19 00:02:38;;;;;;;4.17;3.63;;;23.40;65.20;;;;;;5136864;27;20848;-85
2024/03/19 00:05:07;;;;;;;5.80;3.90;;;23.40;65.20;;;;;;5136631;27;20440;-88
2024/03/19 00:07:34;;;;;;;4.27;3.63;;;23.30;65.10;;;;;;5136684;27;20433;-85
2024/03/19 00:10:01;;;;;;;5.80;3.93;;;23.30;65.10;;;;;;5136885;27;20442;-88
2024/03/19 00:12:30;;;;;;;6.07;4.23;;;23.30;65.10;;;;;;5136613;27;20469;-89
2024/03/19 00:14:57;;;;;;;5.87;3.93;;;23.40;65.20;;;;;;5136321;27;20525;-88
2024/03/19 00:17:24;;;;;;;5.20;3.60;;;23.30;65.10;;;;;;5136278;27;20481;-84
2024/03/19 00:19:51;;;;;;;5.27;3.80;;;23.30;65.90;;;;;;5136405;27;20430;-88
2024/03/19 00:22:19;;;;;;;4.83;3.70;;;23.30;65.10;;;;;;5136382;27;20465;-85
2024/03/19 00:24:47;;;;;;;4.90;3.43;;;23.30;65.90;;;;;;5136708;27;20426;-85
2024/03/19 00:27:13;;;;;;;5.20;3.80;;;23.30;65.00;;;;;;5136365;27;20442;-88
2024/03/19 00:29:40;;;;;;;4.00;3.40;;;23.40;65.20;;;;;;5136178;27;20426;-84
2024/03/19 00:32:07;;;;;;;5.20;3.63;;;23.30;65.00;;;;;;5136420;27;20788;-88
2024/03/19 00:34:35;;;;;;;4.77;3.63;;;23.30;64.90;;;;;;5136209;27;20426;-85
2024/03/19 00:37:03;;;;;;;8.20;3.97;;;23.30;64.90;;;;;;5136031;27;20815;-89
2024/03/19 00:39:31;;;;;;;5.80;3.40;;;23.30;64.90;;;;;;5136293;27;20526;-88
2024/03/19 00:41:58;;;;;;;5.10;3.43;;;23.50;65.10;;;;;;5136130;27;20474;-88
2024/03/19 00:44:25;;;;;;;5.80;4.10;;;23.30;64.90;;;;;;5135912;27;20429;-88
2024/03/19 00:46:52;;;;;;;4.33;3.60;;;23.50;65.10;;;;;;5141025;27;20442;-84
2024/03/19 00:49:18;;;;;;;4.90;3.43;;;23.50;65.10;;;;;;5147006;27;20430;-85
2024/03/19 00:51:45;;;;;;;4.23;3.20;;;23.30;64.80;;;;;;5139780;27;20461;-89
2024/03/19 00:54:12;;;;;;;4.60;3.73;;;23.30;64.90;;;;;;5135728;27;20436;-89
2024/03/19 00:56:40;;;;;;;4.40;3.80;;;23.30;64.80;;;;;;5135778;27;20815;-86
2024/03/19 00:59:07;;;;;;;5.43;3.33;;;23.30;64.80;;;;;;5135891;27;20430;-88
2024/03/19 01:01:35;;;;;;;6.17;4.00;;;23.30;64.80;;;;;;5136294;27;20438;-85
2024/03/19 01:04:04;;;;;;;4.33;2.97;;;23.30;64.70;;;;;;5135502;27;20442;-85
2024/03/19 01:06:31;;;;;;;6.10;3.90;;;23.30;64.80;;;;;;5135394;27;20426;-89
2024/03/19 01:08:58;;;;;;;6.17;4.07;;;23.30;64.80;;;;;;5135634;27;20929;-85
2024/03/19 01:11:25;;;;;;;4.87;3.10;;;23.30;64.80;;;;;;5135405;27;20473;-89
2024/03/19 01:13:54;;;;;;;5.13;3.77;;;23.30;64.80;;;;;;5135649;27;20429;-88
2024/03/19 01:16:20;;;;;;;4.70;3.37;;;23.30;64.80;;;;;;5135538;27;20477;-85
2024/03/19 01:18:47;;;;;;;4.57;3.53;;;23.30;64.80;;;;;;5135133;27;20432;-89
2024/03/19 01:21:14;;;;;;;5.87;4.10;;;23.20;64.70;;;;;;5135250;27;20445;-88
2024/03/19 01:23:41;;;;;;;4.50;3.27;;;23.30;64.70;;;;;;5134873;27;20456;-88
2024/03/19 01:26:07;;;;;;;4.60;3.67;;;23.30;64.70;;;;;;5135293;27;20797;-85
2024/03/19 01:28:35;;;;;;;4.30;2.93;;;23.30;64.70;;;;;;5135149;27;20429;-87
2024/03/19 01:31:03;;;;;;;7.33;3.80;;;23.30;64.70;;;;;;5135324;27;20470;-87
2024/03/19 01:33:30;;;;;;;4.20;3.17;;;23.20;64.70;;;;;;5135453;27;20426;-85
2024/03/19 01:35:57;;;;;;;6.23;3.67;;;23.20;64.70;;;;;;5134480;27;20452;-89
2024/03/19 01:38:25;;;;;;;5.63;3.50;;;23.30;64.70;;;;;;5135064;27;20433;-85
2024/03/19 01:40:52;;;;;;;5.40;3.80;;;23.30;64.70;;;;;;5134849;27;20437;-86
2024/03/19 01:43:20;;;;;;;4.10;3.10;;;23.20;64.70;;;;;;5134961;27;20533;-89
2024/03/19 01:46:21;;;;;;;5.30;3.67;;;23.20;64.70;;;;;;5134354;27;20789;-86
2024/03/19 01:48:49;;;;;;;4.40;2.90;;;23.20;64.60;;;;;;5135090;27;20436;-89
2024/03/19 01:51:18;;;;;;;4.60;3.50;;;23.20;64.70;;;;;;5134946;27;20430;-85
2024/03/19 01:53:45;;;;;;;5.10;3.40;;;23.20;64.70;;;;;;5134398;27;20456;-88
2024/03/19 01:56:12;;;;;;;5.60;3.33;;;23.20;64.70;;;;;;5134529;27;20481;-87
2024/03/19 01:58:39;;;;;;;4.93;3.73;;;23.20;64.70;;;;;;5134503;27;20430;-85
2024/03/19 02:01:06;;;;;;;4.57;3.53;;;23.20;64.60;;;;;;5134391;27;20961;-85
2024/03/19 02:03:34;;;;;;;4.47;3.87;;;23.20;64.60;;;;;;5134480;28;20437;-87
2024/03/19 02:06:01;;;;;;;5.20;3.40;;;23.20;64.60;;;;;;5134641;28;20433;-86
2024/03/19 02:08:28;;;;;;;6.50;3.60;;;23.20;64.60;;;;;;5134416;28;20435;-85
2024/03/19 02:10:55;;;;;;;4.23;3.03;;;23.20;64.60;;;;;;5134526;28;20916;-88
2024/03/19 02:13:21;;;;;;;5.47;3.60;;;23.20;64.60;;;;;;5134424;28;20793;-84
2024/03/19 02:15:50;;;;;;;3.80;2.90;;;23.20;64.60;;;;;;5134475;28;20440;-85
2024/03/19 02:18:16;;;;;;;4.23;3.40;;;23.20;64.60;;;;;;5134216;28;20534;-85
2024/03/19 02:20:45;;;;;;;4.27;3.30;;;23.20;64.60;;;;;;5134202;28;20421;-85
2024/03/19 02:23:13;;;;;;;4.07;3.10;;;23.20;64.50;;;;;;5134383;28;20458;-85
2024/03/19 02:25:39;;;;;;;4.03;2.93;;;23.20;64.60;;;;;;5134260;28;20924;-85
2024/03/19 02:28:06;;;;;;;4.30;3.23;;;23.20;64.60;;;;;;5134240;28;20438;-85
2024/03/19 02:30:33;;;;;;;4.70;3.30;;;23.10;64.50;;;;;;5134323;28;20791;-88
2024/03/19 02:33:00;;;;;;;4.27;3.27;;;23.20;64.60;;;;;;5134338;28;20441;-89
2024/03/19 02:35:27;;;;;;;4.07;2.80;;;23.20;64.60;;;;;;5134400;28;20920;-88
2024/03/19 02:37:53;;;;;;;4.57;3.37;;;23.20;64.60;;;;;;5133893;28;20576;-85
2024/03/19 02:40:22;;;;;;;3.47;2.77;;;23.10;64.50;;;;;;5134306;28;20780;-88
2024/03/19 02:42:49;;;;;;;4.63;3.57;;;23.10;64.50;;;;;;5133996;28;20444;-88
2024/03/19 02:45:16;;;;;;;3.07;2.77;;;23.20;64.60;;;;;;5134280;28;20433;-85
2024/03/19 02:47:43;;;;;;;3.50;2.63;;;23.10;64.50;;;;;;5134228;28;20826;-85
2024/03/19 02:50:10;;;;;;;4.90;3.37;;;23.10;65.20;;;;;;5134057;28;20432;-85
2024/03/19 02:52:37;;;;;;;3.90;3.43;;;23.10;64.40;;;;;;5134120;28;20461;-85
2024/03/19 02:55:04;;;;;;;4.90;3.17;;;23.10;64.40;;;;;;5134135;28;20946;-86
2024/03/19 02:57:33;;;;;;;3.97;2.70;;;23.10;64.40;;;;;;5137507;27;20484;-85
2024/03/19 02:59:59;;;;;;;4.70;3.00;;;23.10;64.40;;;;;;5137576;27;20924;-85
2024/03/19 03:02:26;;;;;;;5.00;3.00;;;23.10;64.30;;;;;;5137696;27;20444;-85
2024/03/19 03:04:53;;;;;;;3.60;2.80;;;23.10;64.30;;;;;;5137684;27;20433;-85
2024/03/19 03:07:20;;;;;;;4.70;3.17;;;23.10;64.30;;;;;;5137734;27;20449;-85
2024/03/19 03:09:46;;;;;;;3.50;2.70;;;23.10;64.30;;;;;;5137548;27;20924;-88
2024/03/19 03:12:13;;;;;;;4.00;2.40;;;23.10;64.30;;;;;;5137447;27;20541;-84
2024/03/19 03:14:41;;;;;;;4.43;2.80;;;23.10;64.30;;;;;;5137513;27;20437;-85
2024/03/19 03:17:09;;;;;;;3.50;2.30;;;23.10;64.40;;;;;;5137424;27;20477;-87
2024/03/19 03:19:36;;;;;;;3.03;2.50;;;23.10;64.40;;;;;;5137503;27;20436;-85
2024/03/19 03:22:02;;;;;;;3.67;2.93;;;23.10;64.40;;;;;;5137391;27;20454;-85
2024/03/19 03:24:30;;;;;;;4.33;2.97;;;23.10;64.30;;;;;;5137576;27;20448;-85
2024/03/19 03:26:57;;;;;;;4.00;3.33;;;23.10;64.30;;;;;;5137206;27;20434;-85
2024/03/19 03:29:25;;;;;;;3.13;2.83;;;23.10;64.40;;;;;;5136911;27;20449;-83
2024/03/19 03:31:53;;;;;;;3.73;3.00;;;23.10;64.30;;;;;;5123987;27;20434;-84
2024/03/19 03:37:42;;;;;;;3.00;2.50;;;23.10;64.20;;;;;;5104576;28;20547;-84
2024/03/19 03:40:13;;;;;;;3.63;2.80;;;23.10;64.40;;;;;;5105490;28;20423;-85
2024/03/19 03:42:40;;;;;;;4.30;3.00;;;23.10;64.30;;;;;;5101072;28;20431;-84
2024/03/19 03:45:08;;;;;;;4.67;3.20;;;23.10;64.30;;;;;;5095839;28;20450;-84
2024/03/19 03:47:36;;;;;;;3.83;3.20;;;23.10;64.20;;;;;;5095549;28;20442;-84
2024/03/19 03:50:02;;;;;;;3.20;2.90;;;23.10;64.20;;;;;;5095950;28;20427;-84
2024/03/19 03:52:32;;;;;;;3.00;2.63;;;23.10;64.20;;;;;;5095740;28;20459;-84
2024/03/19 03:54:59;;;;;;;3.33;3.00;;;23.10;64.20;;;;;;5095583;28;20793;-85
2024/03/19 03:57:26;;;;;;;2.60;2.23;;;23.10;64.20;;;;;;5095880;28;20490;-85
2024/03/19 03:59:54;;;;;;;2.80;2.40;;;23.10;64.20;;;;;;5100654;28;20444;-85
2024/03/19 04:02:20;;;;;;;3.33;3.00;;;23.10;64.20;;;;;;5099122;28;20423;-84
2024/03/19 04:04:51;;;;;;;3.70;3.30;;;23.20;64.40;;;;;;5098648;28;20431;-84
2024/03/19 04:07:17;;;;;;;3.00;2.70;;;23.10;64.20;;;;;;5094878;28;20447;-84
2024/03/19 04:09:44;;;;;;;2.77;2.47;;;23.10;64.20;;;;;;5095754;28;20432;-87
2024/03/19 04:12:11;;;;;;;3.20;2.90;;;23.10;64.20;;;;;;5095351;28;20497;-86
2024/03/19 04:14:37;;;;;;;3.17;2.40;;;23.10;64.20;;;;;;5095373;28;20431;-85
2024/03/19 04:17:04;;;;;;;3.30;2.70;;;23.10;64.20;;;;;;5095165;28;20479;-88
2024/03/19 04:19:31;;;;;;;2.60;2.40;;;23.10;64.20;;;;;;5095790;28;20450;-84
2024/03/19 04:21:59;;;;;;;3.27;2.93;;;23.10;64.20;;;;;;5095385;28;20470;-88
2024/03/19 04:24:26;;;;;;;3.43;2.90;;;23.10;64.20;;;;;;5095449;28;20435;-85
2024/03/19 04:26:53;;;;;;;3.17;2.70;;;23.10;64.20;;;;;;5095663;28;20470;-85
2024/03/19 04:29:20;;;;;;;2.50;2.17;;;23.10;64.20;;;;;;5095276;28;20432;-88
2024/03/19 04:31:46;;;;;;;4.57;2.80;;;23.10;64.20;;;;;;5094899;28;20927;-84
2024/03/19 04:34:13;;;;;;;5.50;2.53;;;23.10;64.20;;;;;;5095251;28;20496;-86
2024/03/19 04:36:40;;;;;;;4.00;2.83;;;23.00;64.00;;;;;;5095302;28;20440;-85
2024/03/19 04:39:11;;;;;;;3.40;2.60;;;23.10;64.10;;;;;;5095128;28;20443;-84
2024/03/19 04:41:39;;;;;;;3.70;2.63;;;23.10;64.20;;;;;;5095292;28;20493;-84
2024/03/19 04:44:06;;;;;;;3.77;3.20;;;23.10;64.20;;;;;;5094757;28;20427;-84
2024/03/19 04:46:33;;;;;;;3.63;2.50;;;23.00;64.00;;;;;;5094525;28;20430;-87
2024/03/19 04:48:59;;;;;;;3.43;2.67;;;23.00;64.00;;;;;;5094652;28;20435;-85
2024/03/19 04:51:28;;;;;;;2.67;2.43;;;23.00;64.00;;;;;;5094482;28;20438;-84
2024/03/19 04:53:54;;;;;;;2.90;2.60;;;23.20;64.30;;;;;;5094707;28;20446;-85
2024/03/19 04:56:23;;;;;;;3.57;2.63;;;23.00;64.00;;;;;;5094604;28;20436;-83
2024/03/19 04:58:50;;;;;;;3.43;2.77;;;23.00;64.00;;;;;;5094286;28;21016;-84
2024/03/19 05:01:18;;;;;;;3.00;2.70;;;23.00;64.00;;;;;;5094511;28;20461;-83
2024/03/19 05:03:45;;;;;;;2.83;2.50;;;23.00;64.00;;;;;;5094338;28;20467;-83
2024/03/19 05:06:13;;;;;;;2.53;2.17;;;23.00;64.00;;;;;;5094601;28;20439;-84
2024/03/19 05:08:41;;;;;;;2.70;2.43;;;23.00;64.10;;;;;;5094394;28;20438;-84
2024/03/19 05:11:07;;;;;;;2.83;2.50;;;23.00;64.90;;;;;;5094042;28;21004;-86
2024/03/19 05:13:37;;;;;;;3.77;3.37;;;23.00;64.00;;;;;;5094575;28;20447;-83
2024/03/19 05:16:04;;;;;;;3.00;2.63;;;23.00;64.00;;;;;;5094085;28;20435;-84
2024/03/19 05:18:31;;;;;;;3.30;2.60;;;23.00;64.00;;;;;;5094336;28;20834;-84
2024/03/19 05:20:58;;;;;;;2.70;2.20;;;23.00;64.90;;;;;;5093882;28;20509;-85
2024/03/19 05:23:25;;;;;;;2.70;2.50;;;23.00;64.10;;;;;;5094304;28;20460;-84
2024/03/19 05:25:52;;;;;;;2.60;2.10;;;23.00;64.10;;;;;;5094143;28;20428;-83
2024/03/19 05:28:19;;;;;;;2.37;2.10;;;23.00;64.10;;;;;;5093751;28;20906;-84
2024/03/19 05:30:47;;;;;;;3.27;2.50;;;23.00;64.20;;;;;;5094194;28;20426;-83
2024/03/19 05:33:14;;;;;;;3.40;2.87;;;23.00;64.20;;;;;;5094093;28;20438;-83
2024/03/19 05:35:41;;;;;;;4.10;3.30;;;23.00;64.30;;;;;;5085800;28;20478;-84
2024/03/19 05:38:08;;;;;;;3.87;3.27;;;23.00;64.20;;;;;;5094284;28;20479;-85
2024/03/19 05:40:35;;;;;;;3.53;3.17;;;23.00;64.50;;;;;;5094431;28;20498;-85
2024/03/19 05:43:03;;;;;;;3.30;3.00;;;23.00;64.50;;;;;;5094299;28;20424;-84
2024/03/19 05:45:31;;;;;;;3.30;2.90;;;23.00;64.60;;;;;;5094557;28;20469;-88
2024/03/19 05:48:02;;;;;;;3.27;2.87;;;23.00;64.70;;;;;;5094360;28;20451;-85
2024/03/19 05:50:29;;;;;;;3.83;3.20;;;23.00;64.60;;;;;;5094425;28;20927;-85
2024/03/19 05:52:59;;;;;;;5.37;3.13;;;23.00;64.60;;;;;;5094167;28;20466;-85
2024/03/19 05:55:25;;;;;;;4.80;3.47;;;23.00;64.70;;;;;;5093798;28;20454;-85
2024/03/19 05:57:52;;;;;;;3.07;2.77;;;23.00;64.70;;;;;;5093950;28;20471;-85
2024/03/19 06:00:21;;;;;;;3.33;2.90;;;23.00;64.70;;;;;;5094205;28;20431;-85
2024/03/19 06:02:48;;;;;;;4.10;2.50;;;23.00;64.70;;;;;;5094022;28;20809;-85
2024/03/19 06:05:16;;;;;;;3.87;3.13;;;23.00;64.70;;;;;;5094105;28;20444;-86
2024/03/19 06:07:43;;;;;;;3.90;3.33;;;23.00;64.80;;;;;;5093925;28;20792;-86
2024/03/19 06:10:11;;;;;;;3.63;3.07;;;23.00;65.10;;;;;;5094046;28;20922;-86
2024/03/19 06:12:38;;;;;;;3.90;3.30;;;23.00;65.00;;;;;;5093877;28;20498;-89
2024/03/19 06:15:07;;;;;;;3.60;2.87;;;23.00;65.00;;;;;;5094175;28;20471;-89
2024/03/19 06:17:34;;;;;;;4.90;3.63;;;23.00;65.00;;;;;;5094399;28;20475;-87
2024/03/19 06:20:00;;;;;;;4.17;3.20;;;23.00;65.00;;;;;;5093989;28;20804;-86
2024/03/19 06:22:28;;;;;;;3.70;3.33;;;23.00;65.00;;;;;;5092367;28;20846;-87
2024/03/19 06:24:55;;;;;;;3.63;3.23;;;23.00;65.00;;;;;;5092302;28;20938;-86
2024/03/19 06:27:22;;;;;;;3.50;3.13;;;23.10;65.20;;;;;;5093297;28;20845;-86
2024/03/19 06:29:49;;;;;;;4.27;3.37;;;23.00;65.20;;;;;;5097844;28;20431;-90
2024/03/19 06:32:18;;;;;;;3.00;2.50;;;23.00;65.20;;;;;;5098968;28;20459;-83
2024/03/19 06:34:45;;;;;;;3.90;2.93;;;23.00;65.30;;;;;;5120013;27;20955;-89
2024/03/19 06:37:12;;;;;;;2.57;2.37;;;23.10;65.40;;;;;;5098748;28;20431;-92
2024/03/19 06:39:42;;;;;;;4.00;2.83;;;23.00;65.40;;;;;;5097675;28;20490;-87
2024/03/19 06:42:09;;;;;;;4.40;2.70;;;23.00;65.30;;;;;;5097793;28;20534;-91
2024/03/19 06:44:36;;;;;;;3.10;2.80;;;23.00;65.40;;;;;;5100698;28;20454;-90
2024/03/19 06:47:04;;;;;;;3.83;3.33;;;23.00;65.50;;;;;;5463680;22;20482;-88
2024/03/19 06:49:31;;;;;;;3.73;2.63;;;23.00;65.40;;;;;;5117999;28;20434;-87
2024/03/19 06:51:58;;;;;;;2.90;2.50;;;23.00;65.40;;;;;;5117593;28;20463;-88
2024/03/19 06:54:24;;;;;;;4.30;2.60;;;23.00;65.30;;;;;;5118285;28;20438;-91
2024/03/19 06:56:53;;;;;;;3.57;3.00;;;23.00;65.30;;;;;;5118342;28;20442;-92
2024/03/19 06:59:23;;;;;;;3.83;3.33;;;23.10;65.40;;;;;;5117553;28;20489;-86
2024/03/19 07:01:49;;;;;;;3.40;3.10;;;23.00;65.30;;;;;;5116987;28;20468;-85
2024/03/19 07:04:16;;;;;;;6.80;3.40;;;23.00;65.20;;;;;;5133874;27;20940;-88
2024/03/19 07:06:43;;;;;;;3.23;2.87;;;23.00;65.20;;;;;;5136291;27;20940;-87
2024/03/19 07:09:10;;;;;;;5.03;3.30;;;23.00;65.20;;;;;;5117338;28;20477;-91
2024/03/19 07:11:37;;;;;;;3.83;2.90;;;23.00;65.20;;;;;;5117769;27;20457;-94
2024/03/19 07:14:07;;;;;;;5.40;3.30;;;23.10;65.30;;;;;;5120912;27;20932;-88
2024/03/19 07:16:34;;;;;;;3.83;3.13;;;23.00;65.20;;;;;;5141193;27;20787;-81
2024/03/19 07:19:00;;;;;;;8.10;3.63;;;23.00;65.20;;;;;;5118583;28;20549;-81
2024/03/19 07:21:29;;;;;;;4.53;3.30;;;23.00;65.20;;;;;;5123487;28;20472;-86
2024/03/19 07:23:56;;;;;;;4.40;3.10;;;23.00;65.20;;;;;;5116667;28;20462;-89
2024/03/19 07:26:23;;;;;;;4.50;3.20;;;23.00;65.20;;;;;;5116889;28;20439;-89
2024/03/19 07:28:50;;;;;;;3.70;2.93;;;23.00;65.30;;;;;;5116099;28;20795;-86
2024/03/19 07:31:19;;;;;;;4.03;2.83;;;23.00;65.30;;;;;;5098479;28;20430;-89
2024/03/19 07:33:45;;;;;;;5.83;3.30;;;23.00;65.30;;;;;;5116528;28;20491;-90
2024/03/19 07:36:12;;;;;;;3.60;2.80;;;23.00;65.30;;;;;;5116365;28;20435;-90
2024/03/19 07:38:40;;;;;;;3.93;3.13;;;23.00;65.30;;;;;;5116418;28;20838;-90
2024/03/19 07:41:08;;;;;;;3.80;3.30;;;23.00;65.20;;;;;;5116206;28;20926;-87
2024/03/19 07:43:34;;;;;;;3.37;2.73;;;23.00;65.30;;;;;;5115105;28;20441;-89
2024/03/19 07:46:01;;;;;;;4.10;2.73;;;23.10;65.40;;;;;;5116063;28;20453;-87
2024/03/19 07:48:29;;;;;;;3.50;2.60;;;23.00;65.20;;;;;;5097811;28;20579;-93
2024/03/19 07:50:57;;;;;;;4.60;2.60;;;23.00;66.10;;;;;;5095539;28;20558;-90
2024/03/19 07:53:25;;;;;;;3.13;2.60;;;23.00;65.20;;;;;;5095587;28;20572;-85
2024/03/19 07:55:52;;;;;;;3.97;3.03;;;23.00;65.20;;;;;;5095119;28;20530;-88
2024/03/19 07:58:19;;;;;;;3.20;2.90;;;23.00;65.20;;;;;;5095561;28;20489;-84
2024/03/19 08:00:46;;;;;;;3.60;3.07;;;23.10;65.30;;;;;;5094650;28;20504;-85
2024/03/19 08:03:13;;;;;;;3.10;2.60;;;23.00;65.20;;;;;;5094777;28;20439;-93
2024/03/19 08:05:41;;;;;;;5.43;2.70;;;23.00;65.30;;;;;;5095287;28;20443;-85
2024/03/19 08:08:08;;;;;;;6.10;2.97;;;23.00;65.20;;;;;;5095040;28;20443;-85
2024/03/19 08:10:34;;;;;;;5.00;2.77;;;23.00;65.20;;;;;;5095263;28;20446;-85
2024/03/19 08:13:01;;;;;;;4.33;2.73;;;23.00;65.20;;;;;;5094493;28;20442;-85
2024/03/19 08:15:29;;;;;;;4.23;2.90;;;23.00;65.20;;;;;;5094963;28;20858;-85
2024/03/19 08:17:56;;;;;;;5.73;3.20;;;23.00;65.10;;;;;;5094074;28;20447;-85
2024/03/19 08:20:22;;;;;;;4.57;2.67;;;23.00;65.10;;;;;;5094562;28;20439;-85
2024/03/19 08:22:51;;;;;;;5.93;3.30;;;23.00;65.10;;;;;;5094285;28;20494;-85
2024/03/19 08:25:18;;;;;;;3.97;2.70;;;23.00;66.10;;;;;;5094644;28;20427;-85
2024/03/19 08:27:45;;;;;;;2.93;2.33;;;23.00;65.20;;;;;;5094608;28;20439;-89
2024/03/19 08:30:12;;;;;;;3.40;3.00;;;23.00;65.30;;;;;;5094282;28;20471;-85
2024/03/19 08:32:39;;;;;;;4.57;2.90;;;23.00;65.30;;;;;;5094574;28;20448;-85
2024/03/19 08:35:08;;;;;;;2.80;2.50;;;23.00;65.40;;;;;;5094504;28;20438;-86
2024/03/19 08:37:36;;;;;;;3.33;2.73;;;23.00;65.50;;;;;;5094041;28;20534;-93
2024/03/19 08:40:06;;;;;;;3.60;2.90;;;23.00;65.50;;;;;;5094317;28;20487;-85
2024/03/19 08:42:33;;;;;;;5.37;2.80;;;23.10;65.50;;;;;;5094418;28;20475;-88
2024/03/19 08:45:00;;;;;;;3.57;2.80;;;23.10;65.50;;;;;;5094380;28;20860;-92
2024/03/19 08:47:27;;;;;;;3.83;2.67;;;23.10;65.60;;;;;;5105513;28;20518;-85
2024/03/19 08:49:54;;;;;;;3.17;2.77;;;23.10;65.50;;;;;;5135645;28;20496;-85
2024/03/19 08:52:21;;;;;;;3.97;2.87;;;23.10;65.50;;;;;;5135140;28;20447;-84
2024/03/19 08:54:49;;;;;;;3.20;2.57;;;23.20;65.70;;;;;;5132612;28;20450;-85
2024/03/19 08:57:17;;;;;;;3.97;2.73;;;23.00;65.50;;;;;;5116343;28;20430;-90
2024/03/19 08:59:44;;;;;;;2.93;2.43;;;23.10;65.70;;;;;;5115058;28;20482;-85
2024/03/19 09:02:11;;;;;;;2.67;2.40;;;23.10;65.80;;;;;;5114471;28;20447;-85
2024/03/19 09:04:38;;;;;;;3.77;2.40;;;23.10;65.80;;;;;;5114632;28;20439;-85
2024/03/19 09:07:05;;;;;;;5.27;3.20;;;23.10;65.80;;;;;;5114662;28;20430;-85
2024/03/19 09:09:32;;;;;;;2.90;2.60;;;23.10;65.80;;;;;;5115466;28;20507;-85
2024/03/19 09:11:58;;;;;;;3.40;2.70;;;23.20;65.90;;;;;;5113997;28;20434;-84
2024/03/19 09:14:26;;;;;;;4.30;3.00;;;23.20;65.80;;;;;;5114058;28;20440;-85
2024/03/19 09:16:53;;;;;;;5.23;2.77;;;23.20;65.80;;;;;;5114048;28;20442;-85
2024/03/19 09:19:20;;;;;;;4.40;3.00;;;23.20;65.70;;;;;;5110645;28;20486;-91
2024/03/19 09:21:47;;;;;;;4.50;2.37;;;23.20;65.70;;;;;;5098558;28;20470;-92
2024/03/19 09:24:14;;;;;;;6.70;2.50;;;23.30;65.80;;;;;;5103144;28;20442;-89
2024/03/19 09:26:41;;;;;;;4.57;2.20;;;23.20;65.70;;;;;;5104158;28;20443;-88
2024/03/19 09:29:07;;;;;;;4.07;2.70;;;23.20;65.70;;;;;;5096434;28;20443;-87
2024/03/19 09:31:35;;;;;;;3.00;2.00;;;23.30;65.80;;;;;;5094062;28;20452;-89
2024/03/19 09:34:03;;;;;;;4.43;2.13;;;23.30;65.90;;;;;;5093352;28;20455;-89
2024/03/19 09:36:30;;;;;;;4.33;1.80;;;23.30;65.80;;;;;;5093754;28;20479;-86
2024/03/19 09:38:57;;;;;;;3.17;2.27;;;23.30;65.80;;;;;;5112370;28;20840;-89
2024/03/19 09:41:25;;;;;;;5.53;2.50;;;23.30;65.80;;;;;;5115015;28;20771;-89
2024/03/19 09:43:53;;;;;;;4.50;2.43;;;23.30;65.80;;;;;;5114327;28;20930;-88
2024/03/19 09:46:20;;;;;;;4.20;2.50;;;23.30;65.60;;;;;;5110232;28;20459;-88
2024/03/19 09:48:49;;;;;;;3.80;2.40;;;23.40;65.80;;;;;;5093733;28;20443;-84
2024/03/19 09:51:21;;;;;;;4.53;2.47;;;23.40;65.90;;;;;;5093387;28;21126;-82
2024/03/19 09:53:48;;;;;;;5.43;2.13;;;23.30;65.70;;;;;;5093860;28;20506;-88
2024/03/19 09:56:19;;;;;;;3.40;1.90;;;23.30;65.70;;;;;;5093599;28;20435;-82
2024/03/19 09:58:49;;;;;;;4.57;2.50;;;23.40;65.80;;;;;;5093481;28;20487;-88
2024/03/19 10:01:16;;;;;;;3.50;2.03;;;23.40;65.90;;;;;;5093453;28;20776;-88
2024/03/19 10:03:43;;;;;;;4.10;2.20;;;23.40;66.00;;;;;;5093182;28;20435;-83
2024/03/19 10:06:16;;;;;;;3.47;2.07;;;23.30;65.90;;;;;;5090673;28;20929;-83
2024/03/19 10:08:45;;;;;;;3.10;1.97;;;23.40;66.10;;;;;;5091240;28;20813;-82
2024/03/19 10:11:12;;;;;;;3.63;2.33;;;23.40;66.00;;;;;;5091149;28;20443;-82
2024/03/19 10:13:39;;;;;;;4.67;2.30;;;23.50;66.00;;;;;;5091353;28;20451;-83
2024/03/19 10:16:07;;;;;;;3.00;2.27;;;23.60;66.10;;;;;;5091088;28;20509;-82
2024/03/19 10:18:33;;;;;;;5.83;2.40;;;23.50;66.00;;;;;;5091166;28;20443;-82
2024/03/19 10:21:00;;;;;;;3.10;2.00;;;23.40;66.00;;;;;;5092966;28;20973;-84
2024/03/19 10:23:28;;;;;;;2.27;1.73;;;23.50;66.10;;;;;;5093521;28;20447;-86
2024/03/19 10:25:55;;;;;;;3.33;2.10;;;23.50;66.10;;;;;;5093442;28;20435;-82
2024/03/19 10:28:22;;;;;;;3.20;1.93;;;23.50;66.00;;;;;;5093176;28;20442;-82
2024/03/19 10:30:48;;;;;;;3.47;1.87;;;23.50;66.10;;;;;;5093155;28;20443;-88
2024/03/19 10:33:14;;;;;;;5.53;2.00;;;23.60;66.20;;;;;;5093147;28;20439;-87
2024/03/19 10:35:42;;;;;;;3.17;2.03;;;23.60;66.10;;;;;;5093161;28;20201;-82
2024/03/19 10:38:14;;;;;;;4.10;2.10;;;23.60;66.10;;;;;;5093419;28;20934;-81
2024/03/19 10:40:43;;;;;;;3.80;2.00;;;23.60;66.10;;;;;;5096506;28;20479;-83
2024/03/19 10:43:17;;;;;;;2.97;2.00;;;23.60;66.20;;;;;;5093389;28;20443;-82
2024/03/19 10:45:46;;;;;;;4.03;2.03;;;23.60;66.20;;;;;;5093015;28;20428;-81
2024/03/19 10:48:15;;;;;;;3.57;1.90;;;23.70;66.40;;;;;;5108883;28;20466;-85
2024/03/19 10:50:43;;;;;;;3.80;1.80;;;23.70;66.30;;;;;;5113379;28;20435;-81
2024/03/19 10:53:13;;;;;;;3.63;1.73;;;23.70;66.40;;;;;;5113410;28;20441;-81
2024/03/19 10:55:42;;;;;;;2.50;1.70;;;23.70;66.40;;;;;;5113343;28;20443;-81
2024/03/19 10:58:11;;;;;;;3.13;2.17;;;23.70;66.40;;;;;;5113094;28;20446;-81
2024/03/19 11:00:41;;;;;;;3.10;1.70;;;23.70;66.40;;;;;;5113297;28;20877;-82
2024/03/19 11:03:15;;;;;;;2.30;1.60;;;23.70;66.40;;;;;;5113141;28;20430;-82
2024/03/19 11:05:45;;;;;;;4.00;1.80;;;23.70;66.40;;;;;;5113242;28;20441;-86
2024/03/19 11:08:12;;;;;;;3.60;2.30;;;23.70;66.40;;;;;;5113625;28;20777;-81
2024/03/19 11:10:39;;;;;;;2.20;1.67;;;23.70;66.40;;;;;;5113036;28;20948;-81
2024/03/19 11:13:09;;;;;;;2.93;1.70;;;23.70;66.40;;;;;;5113121;28;20435;-87
2024/03/19 11:15:37;;;;;;;3.30;2.20;;;23.80;66.50;;;;;;5112885;28;20441;-82
2024/03/19 11:18:18;;;;;;;4.30;1.70;;;23.80;66.60;;;;;;5114194;28;20434;-86
2024/03/19 11:20:51;;;;;;;2.67;1.90;;;23.80;66.60;;;;;;5116670;28;20504;-81
2024/03/19 11:23:20;;;;;;;3.60;1.50;;;23.80;66.70;;;;;;5116806;28;20530;-81
2024/03/19 11:25:48;;;;;;;1.93;1.40;;;23.80;66.60;;;;;;5116608;28;20438;-86
2024/03/19 11:28:23;;;;;;;2.47;1.40;;;23.80;66.70;;;;;;5117450;27;20457;-88
2024/03/19 11:30:54;;;;;;;2.70;1.90;;;23.80;66.70;;;;;;5122553;27;20529;-85
2024/03/19 11:33:21;;;;;;;2.17;1.60;;;23.80;66.50;;;;;;5116403;28;20925;-88
2024/03/19 11:35:48;;;;;;;3.17;1.87;;;23.90;66.70;;;;;;5116725;28;20796;-87
2024/03/19 11:38:15;;;;;;;3.60;1.80;;;23.90;66.60;;;;;;5116526;28;20426;-81
2024/03/19 11:40:42;;;;;;;3.50;1.67;;;23.90;66.60;;;;;;5116495;28;20482;-81
2024/03/19 11:43:13;;;;;;;3.70;1.47;;;23.80;66.40;;;;;;5116641;28;20435;-82
2024/03/19 11:45:43;;;;;;;2.80;1.50;;;23.90;66.40;;;;;;5116566;28;20484;-82
2024/03/19 11:48:16;;;;;;;2.53;1.80;;;23.90;66.40;;;;;;5116218;28;20819;-81
2024/03/19 11:50:48;;;;;;;2.80;1.53;;;23.90;66.40;;;;;;5116207;28;20431;-81
2024/03/19 11:53:16;;;;;;;3.03;2.17;;;24.00;66.20;;;;;;5114457;28;20438;-81
2024/03/19 11:55:43;;;;;;;2.10;1.60;;;24.00;66.10;;;;;;5114213;28;20434;-81
2024/03/19 11:58:11;;;;;;;6.93;1.53;;;24.00;66.10;;;;;;5113871;28;20434;-81
2024/03/19 12:00:38;;;;;;;2.73;1.60;;;24.00;66.20;;;;;;5113993;28;20474;-81
2024/03/19 12:03:07;;;;;;;2.00;1.37;;;24.00;66.30;;;;;;5114505;28;20786;-85
2024/03/19 12:05:34;;;;;;;2.20;1.30;;;24.00;66.50;;;;;;5113917;28;20956;-81
2024/03/19 12:08:02;;;;;;;2.47;1.40;;;24.00;66.60;;;;;;5114868;28;20431;-81
2024/03/19 12:10:30;;;;;;;2.03;1.33;;;24.20;67.00;;;;;;5116033;28;20446;-88
2024/03/19 12:12:57;;;;;;;3.83;1.50;;;24.00;66.70;;;;;;5115771;28;20449;-81
2024/03/19 12:15:25;;;;;;;2.30;1.40;;;24.10;66.90;;;;;;5116087;28;20932;-88
2024/03/19 12:17:54;;;;;;;7.60;1.43;;;24.10;66.80;;;;;;5116026;28;20445;-88
2024/03/19 12:20:22;;;;;;;3.80;1.90;;;24.20;66.90;;;;;;5115605;28;20478;-87
2024/03/19 12:22:50;;;;;;;2.97;1.60;;;24.20;66.90;;;;;;5115513;28;20451;-82
2024/03/19 12:25:18;;;;;;;2.13;1.40;;;24.20;66.90;;;;;;5115796;28;20458;-82
2024/03/19 12:27:45;;;;;;;3.30;1.80;;;24.30;67.10;;;;;;5115821;28;20447;-88
2024/03/19 12:30:16;;;;;;;2.30;1.30;;;24.30;67.00;;;;;;5115057;28;20441;-88
2024/03/19 12:32:59;;;;;;;2.70;1.30;;;24.30;66.90;;;;;;5115643;28;20442;-83
2024/03/19 12:35:27;;;;;;;2.77;1.23;;;24.40;67.10;;;;;;5115277;28;20936;-81
2024/03/19 12:37:55;;;;;;;3.50;1.50;;;24.40;67.10;;;;;;5115074;28;20431;-81
2024/03/19 12:40:23;;;;;;;2.23;1.60;;;24.40;67.10;;;;;;5115026;28;20486;-81
2024/03/19 12:42:51;;;;;;;1.60;1.00;;;24.50;67.10;;;;;;5115460;28;20469;-88
2024/03/19 12:45:19;;;;;;;6.63;1.60;;;24.60;67.10;;;;;;5115333;28;20445;-81
2024/03/19 12:47:46;;;;;;;5.30;1.30;;;24.50;66.90;;;;;;5115126;28;20471;-81
2024/03/19 12:50:15;;;;;;;3.90;1.47;;;24.50;66.70;;;;;;5115011;28;20431;-81
2024/03/19 12:52:43;;;;;;;1.80;1.20;;;24.50;66.80;;;;;;5114746;28;20476;-87